Coronado, Arizona
Current Conditions -  °F | °C
As of 6:58 AM on Thursday 30 Oct 2014 (Local Time) from KDMA Reporting Station
Clear Clear  
Wind Chill: 62°   Ceiling: Unl
Heat Index: 62°   Visibility: 10mi
Dew Point: 39°   Wind: 10mph
Humidity: 44%   Direction: 150°SSE
Pressure: 30.08"   Gusts: NA
Location:  32.2154°N, 110.884°W
Report Text: KDMA 301358Z AUTO 15009KT 10SM CLR 16/04 A3008 RMK AO2 SLP155 T01640040 $
Loading
Personal Weather Stations






























Interactive Weather Map
Tropical Storm Tracking
New forecast layout! Learn more

10-Day Weather Forecast

Advertisements
Track Severe Weather on mobile